Highclere, United Kingdom
Current Conditions -  °F | °C
As of 5:50 PM on Sunday 21 Dec 2014 (Local Time) from EGVP Reporting Station
Overcast Overcast  
Wind Chill: 50°   Ceiling: 1000
Heat Index: 50°   Visibility: 6mi
Dew Point: 48°   Wind: 10mph
Humidity: 94%   Direction: 230°SW
Pressure: 30.24"   Gusts: NA
Location:  51.34°N, 1.38°W
Report Text: EGVP 211750Z AUTO 23009KT 9999 // OVC010/// 10/09 Q1024
Loading
Personal Weather Stations






























Interactive Weather Map New forecast layout! Learn more

10-Day Weather Forecast

Advertisements
Track Severe Weather on mobile